Hozan Maru — JJ4010 — position and weather

sailwx.info

Track history (hours):
 
Tides and Currents Weather Stations Pressure Air Temp Water Temp Dewpoint Dewpoint Depression Visibility Wind Speed Wind Dir Waves Ship Positions

Hozan Maru

Last reported at 2015-Mar-30 03:33 UTC. Time now 2015-Mar-31 05:29 UTC.
Position N 34°38' E 135°24'.

Length 38 m; draft 3.6 m.

Type: Tug. MMSI: 431401501.

Date/timePositionNaut miles runAvg speedWind from/ knotsBaromVisibWave heightAir tempDewpointWater temp
2015-Mar-30 03:33N 34°38' E 135°24'5 4.1
2015-Mar-30 02:19N 34°33' E 135°25'0 0.5
2015-Mar-30 01:33N 34°33' E 135°25'4 3.6
2015-Mar-30 00:33N 34°34' E 135°20'4 4.2
2015-Mar-29 23:33N 34°31' E 135°24'0 0.4
2015-Mar-29 22:29N 34°31' E 135°23'2 2.5
2015-Mar-29 21:33N 34°33' E 135°22'7 0.5
2015-Mar-29 07:11N 34°39' E 135°25'6 9.8
2015-Mar-29 06:33N 34°40' E 135°18'0 0.1
2015-Mar-29 05:33N 34°40' E 135°18'0 0.1
2015-Mar-29 04:33N 34°40' E 135°18'0 0.0
2015-Mar-29 03:33N 34°40' E 135°18'0 0.1
2015-Mar-29 02:33N 34°40' E 135°17'1 1.3
2015-Mar-29 01:33N 34°40' E 135°19'4 4.4
2015-Mar-29 00:33N 34°40' E 135°24'0 0.0
2015-Mar-28 23:33N 34°40' E 135°24'0 0.0
2015-Mar-28 22:33N 34°40' E 135°24'0 0.0
2015-Mar-28 21:33N 34°40' E 135°24'0 0.0
2015-Mar-28 20:33N 34°40' E 135°24'6 5.9
2015-Mar-28 19:33N 34°39' E 135°17'0 0.1
2015-Mar-28 18:34N 34°39' E 135°17'0 0.1
2015-Mar-28 17:34N 34°39' E 135°17'0 0.1
2015-Mar-28 16:32N 34°39' E 135°17'0 0.1
2015-Mar-28 15:33N 34°39' E 135°17'0 0.1
2015-Mar-28 14:33N 34°39' E 135°17'0 0.2
2015-Mar-28 13:33N 34°39' E 135°17'0 0.1
2015-Mar-28 12:32N 34°39' E 135°18'8 8.0
2015-Mar-28 11:33N 34°40' E 135°27'0 0.0
2015-Mar-28 10:33N 34°40' E 135°27'0 0.0
2015-Mar-28 09:33N 34°40' E 135°27'0 0.0
2015-Mar-28 08:32N 34°40' E 135°27'0 0.0
2015-Mar-28 07:32N 34°40' E 135°27'2 2.1
2015-Mar-28 06:32N 34°40' E 135°25'0 0.1
2015-Mar-28 05:30N 34°40' E 135°25'0 0.0
2015-Mar-28 04:33N 34°40' E 135°25'1 1.0
2015-Mar-28 03:33N 34°39' E 135°26'0 0.0
2015-Mar-28 02:33N 34°39' E 135°26'8 8.3
2015-Mar-28 01:33N 34°38' E 135°16'1513.2
2015-Mar-28 00:27N 34°37' E 134°58'9 4.4
2015-Mar-27 22:27N 34°40' E 134°48'1 0.8
2015-Mar-27 21:32N 34°41' E 134°48'1 0.0
2015-Mar-26 22:25N 34°40' E 134°48'2 0.2
2015-Mar-26 13:05N 34°41' E 134°50'712.5
2015-Mar-26 12:33N 34°38' E 134°58'1313.5
2015-Mar-26 11:33N 34°38' E 135°14'9 8.5
2015-Mar-26 10:31N 34°39' E 135°25'2 2.1
2015-Mar-26 09:29N 34°40' E 135°27'0 0.0
2015-Mar-26 08:33N 34°40' E 135°27'0 0.0
2015-Mar-26 07:33N 34°40' E 135°27'0 0.0
2015-Mar-26 06:33N 34°40' E 135°27'0 0.1
2015-Mar-26 05:33N 34°40' E 135°27'0 0.0
2015-Mar-26 04:33N 34°40' E 135°27'0 0.0
2015-Mar-26 03:33N 34°40' E 135°27'0 0.0
2015-Mar-26 02:33N 34°40' E 135°27'0 0.0
2015-Mar-26 01:31N 34°40' E 135°27'8 8.2
2015-Mar-26 00:33N 34°40' E 135°18'0 0.0
2015-Mar-25 23:33N 34°40' E 135°18'0 0.1
2015-Mar-25 22:33N 34°40' E 135°18'0 0.3
2015-Mar-25 21:33N 34°40' E 135°17'3 3.4
2015-Mar-25 20:33N 34°40' E 135°21'3 0.2
2015-Mar-25 08:33N 34°39' E 135°25'8 7.2
2015-Mar-25 07:27N 34°31' E 135°23'2 2.1
2015-Mar-25 06:33N 34°32' E 135°22'1 0.9
2015-Mar-25 05:29N 34°33' E 135°22'3 3.0
2015-Mar-25 04:27N 34°33' E 135°26'1 0.6
2015-Mar-25 03:33N 34°33' E 135°27'0 0.0
2015-Mar-25 02:34N 34°33' E 135°27'0 0.0
2015-Mar-25 01:34N 34°33' E 135°27'0 0.4
2015-Mar-25 00:33N 34°33' E 135°26'  
2015-Mar-22 06:33N 34°39' E 135°25'2 1.9
2015-Mar-22 05:33N 34°38' E 135°23'4 1.3
2015-Mar-22 02:29N 34°40' E 135°27'0 0.0
2015-Mar-22 01:11N 34°40' E 135°27'1 0.1
2015-Mar-21 14:29N 34°40' E 135°26'7 7.7
2015-Mar-21 13:33N 34°40' E 135°18'0 0.1
2015-Mar-21 12:33N 34°40' E 135°18'0 0.0
2015-Mar-21 11:34N 34°40' E 135°18'0 0.0
2015-Mar-21 10:33N 34°40' E 135°17'1 0.9
2015-Mar-21 09:33N 34°41' E 135°16'3 3.1
2015-Mar-21 08:33N 34°42' E 135°13'0 0.0
2015-Mar-21 07:33N 34°42' E 135°13'0 0.0
2015-Mar-21 06:33N 34°42' E 135°13'0 0.0
2015-Mar-21 05:33N 34°42' E 135°13'0 0.0
2015-Mar-21 04:33N 34°42' E 135°13'5 4.6
2015-Mar-21 03:33N 34°39' E 135°18'0 0.2
2015-Mar-21 02:33N 34°39' E 135°18'0 0.1
2015-Mar-21 01:33N 34°39' E 135°18'0 0.1
2015-Mar-21 00:34N 34°39' E 135°18'0 0.1
2015-Mar-20 23:33N 34°39' E 135°18'0 0.1
2015-Mar-20 22:33N 34°39' E 135°18'0 0.1
2015-Mar-20 21:34N 34°39' E 135°18'3 3.2
2015-Mar-20 20:34N 34°40' E 135°22'  
Track history (hours):
 
Tides and Currents Weather Stations Pressure Air Temp Water Temp Dewpoint Dewpoint Depression Visibility Wind Speed Wind Dir Waves Ship Positions

Hozan Maru

Last reported at 2015-Mar-30 03:33 UTC. Time now 2015-Mar-31 05:29 UTC.
Position N 34°38' E 135°24'.

Length 38 m; draft 3.6 m.

Type: Tug. MMSI: 431401501.

Date/timePositionNaut miles runAvg speedWind from/ knotsBaromVisibWave heightAir tempDewpointWater temp
2015-Mar-30 03:33N 34°38' E 135°24'5 4.1
2015-Mar-30 02:19N 34°33' E 135°25'0 0.5
2015-Mar-30 01:33N 34°33' E 135°25'4 3.6
2015-Mar-30 00:33N 34°34' E 135°20'4 4.2
2015-Mar-29 23:33N 34°31' E 135°24'0 0.4
2015-Mar-29 22:29N 34°31' E 135°23'2 2.5
2015-Mar-29 21:33N 34°33' E 135°22'7 0.5
2015-Mar-29 07:11N 34°39' E 135°25'6 9.8
2015-Mar-29 06:33N 34°40' E 135°18'0 0.1
2015-Mar-29 05:33N 34°40' E 135°18'0 0.1
2015-Mar-29 04:33N 34°40' E 135°18'0 0.0
2015-Mar-29 03:33N 34°40' E 135°18'0 0.1
2015-Mar-29 02:33N 34°40' E 135°17'1 1.3
2015-Mar-29 01:33N 34°40' E 135°19'4 4.4
2015-Mar-29 00:33N 34°40' E 135°24'0 0.0
2015-Mar-28 23:33N 34°40' E 135°24'0 0.0
2015-Mar-28 22:33N 34°40' E 135°24'0 0.0
2015-Mar-28 21:33N 34°40' E 135°24'0 0.0
2015-Mar-28 20:33N 34°40' E 135°24'6 5.9
2015-Mar-28 19:33N 34°39' E 135°17'0 0.1
2015-Mar-28 18:34N 34°39' E 135°17'0 0.1
2015-Mar-28 17:34N 34°39' E 135°17'0 0.1
2015-Mar-28 16:32N 34°39' E 135°17'0 0.1
2015-Mar-28 15:33N 34°39' E 135°17'0 0.1
2015-Mar-28 14:33N 34°39' E 135°17'0 0.2
2015-Mar-28 13:33N 34°39' E 135°17'0 0.1
2015-Mar-28 12:32N 34°39' E 135°18'8 8.0
2015-Mar-28 11:33N 34°40' E 135°27'0 0.0
2015-Mar-28 10:33N 34°40' E 135°27'0 0.0
2015-Mar-28 09:33N 34°40' E 135°27'0 0.0
2015-Mar-28 08:32N 34°40' E 135°27'0 0.0
2015-Mar-28 07:32N 34°40' E 135°27'2 2.1
2015-Mar-28 06:32N 34°40' E 135°25'0 0.1
2015-Mar-28 05:30N 34°40' E 135°25'0 0.0
2015-Mar-28 04:33N 34°40' E 135°25'1 1.0
2015-Mar-28 03:33N 34°39' E 135°26'0 0.0
2015-Mar-28 02:33N 34°39' E 135°26'8 8.3
2015-Mar-28 01:33N 34°38' E 135°16'1513.2
2015-Mar-28 00:27N 34°37' E 134°58'9 4.4
2015-Mar-27 22:27N 34°40' E 134°48'1 0.8
2015-Mar-27 21:32N 34°41' E 134°48'1 0.0
2015-Mar-26 22:25N 34°40' E 134°48'2 0.2
2015-Mar-26 13:05N 34°41' E 134°50'712.5
2015-Mar-26 12:33N 34°38' E 134°58'1313.5
2015-Mar-26 11:33N 34°38' E 135°14'9 8.5
2015-Mar-26 10:31N 34°39' E 135°25'2 2.1
2015-Mar-26 09:29N 34°40' E 135°27'0 0.0
2015-Mar-26 08:33N 34°40' E 135°27'0 0.0
2015-Mar-26 07:33N 34°40' E 135°27'0 0.0
2015-Mar-26 06:33N 34°40' E 135°27'0 0.1
2015-Mar-26 05:33N 34°40' E 135°27'0 0.0
2015-Mar-26 04:33N 34°40' E 135°27'0 0.0
2015-Mar-26 03:33N 34°40' E 135°27'0 0.0
2015-Mar-26 02:33N 34°40' E 135°27'0 0.0
2015-Mar-26 01:31N 34°40' E 135°27'8 8.2
2015-Mar-26 00:33N 34°40' E 135°18'0 0.0
2015-Mar-25 23:33N 34°40' E 135°18'0 0.1
2015-Mar-25 22:33N 34°40' E 135°18'0 0.3
2015-Mar-25 21:33N 34°40' E 135°17'3 3.4
2015-Mar-25 20:33N 34°40' E 135°21'3 0.2
2015-Mar-25 08:33N 34°39' E 135°25'8 7.2
2015-Mar-25 07:27N 34°31' E 135°23'2 2.1
2015-Mar-25 06:33N 34°32' E 135°22'1 0.9
2015-Mar-25 05:29N 34°33' E 135°22'3 3.0
2015-Mar-25 04:27N 34°33' E 135°26'1 0.6
2015-Mar-25 03:33N 34°33' E 135°27'0 0.0
2015-Mar-25 02:34N 34°33' E 135°27'0 0.0
2015-Mar-25 01:34N 34°33' E 135°27'0 0.4
2015-Mar-25 00:33N 34°33' E 135°26'  
2015-Mar-22 06:33N 34°39' E 135°25'2 1.9
2015-Mar-22 05:33N 34°38' E 135°23'4 1.3
2015-Mar-22 02:29N 34°40' E 135°27'0 0.0
2015-Mar-22 01:11N 34°40' E 135°27'1 0.1
2015-Mar-21 14:29N 34°40' E 135°26'7 7.7
2015-Mar-21 13:33N 34°40' E 135°18'0 0.1
2015-Mar-21 12:33N 34°40' E 135°18'0 0.0
2015-Mar-21 11:34N 34°40' E 135°18'0 0.0
2015-Mar-21 10:33N 34°40' E 135°17'1 0.9
2015-Mar-21 09:33N 34°41' E 135°16'3 3.1
2015-Mar-21 08:33N 34°42' E 135°13'0 0.0
2015-Mar-21 07:33N 34°42' E 135°13'0 0.0
2015-Mar-21 06:33N 34°42' E 135°13'0 0.0
2015-Mar-21 05:33N 34°42' E 135°13'0 0.0
2015-Mar-21 04:33N 34°42' E 135°13'5 4.6
2015-Mar-21 03:33N 34°39' E 135°18'0 0.2
2015-Mar-21 02:33N 34°39' E 135°18'0 0.1
2015-Mar-21 01:33N 34°39' E 135°18'0 0.1
2015-Mar-21 00:34N 34°39' E 135°18'0 0.1
2015-Mar-20 23:33N 34°39' E 135°18'0 0.1
2015-Mar-20 22:33N 34°39' E 135°18'0 0.1
2015-Mar-20 21:34N 34°39' E 135°18'3 3.2
2015-Mar-20 20:34N 34°40' E 135°22'  

Dump ship's entire track history